sensor_id;sensor_type;location;lat;lon;timestamp;pressure;altitude;pressure_sealevel;temperature;humidity
55217;BME280;41086;46.736;15.666;2024-01-27T00:02:06;99294.19;;;2.03;100.00
55217;BME280;41086;46.736;15.666;2024-01-27T00:04:35;99289.91;;;2.39;100.00
55217;BME280;41086;46.736;15.666;2024-01-27T00:07:03;99282.50;;;2.19;100.00
55217;BME280;41086;46.736;15.666;2024-01-27T00:09:30;99296.56;;;2.13;100.00
55217;BME280;41086;46.736;15.666;2024-01-27T00:11:56;99301.75;;;3.27;100.00
55217;BME280;41086;46.736;15.666;2024-01-27T00:14:23;99306.75;;;4.00;100.00
55217;BME280;41086;46.736;15.666;2024-01-27T00:16:50;99320.84;;;3.96;100.00
55217;BME280;41086;46.736;15.666;2024-01-27T00:19:17;99314.63;;;4.30;100.00
55217;BME280;41086;46.736;15.666;2024-01-27T00:21:44;99322.00;;;4.45;100.00
55217;BME280;41086;46.736;15.666;2024-01-27T00:24:11;99305.91;;;4.57;97.87
55217;BME280;41086;46.736;15.666;2024-01-27T00:26:37;99323.47;;;4.55;97.24
55217;BME280;41086;46.736;15.666;2024-01-27T00:29:04;99325.81;;;4.64;96.76
55217;BME280;41086;46.736;15.666;2024-01-27T00:31:31;99333.56;;;4.39;97.89
55217;BME280;41086;46.736;15.666;2024-01-27T00:33:58;99343.97;;;3.82;98.73
55217;BME280;41086;46.736;15.666;2024-01-27T00:36:24;99330.28;;;3.70;100.00
55217;BME280;41086;46.736;15.666;2024-01-27T00:38:51;99342.16;;;3.84;98.17
55217;BME280;41086;46.736;15.666;2024-01-27T00:41:18;99328.69;;;3.65;100.00
55217;BME280;41086;46.736;15.666;2024-01-27T00:43:45;99341.53;;;3.74;100.00
55217;BME280;41086;46.736;15.666;2024-01-27T00:46:12;99357.56;;;3.63;100.00
55217;BME280;41086;46.736;15.666;2024-01-27T00:48:39;99356.84;;;4.20;99.97
55217;BME280;41086;46.736;15.666;2024-01-27T00:51:06;99361.47;;;4.42;95.97
55217;BME280;41086;46.736;15.666;2024-01-27T00:53:33;99375.22;;;4.50;95.72
55217;BME280;41086;46.736;15.666;2024-01-27T00:56:00;99369.88;;;4.83;91.05
55217;BME280;41086;46.736;15.666;2024-01-27T00:58:28;99371.75;;;4.79;93.34
55217;BME280;41086;46.736;15.666;2024-01-27T01:00:54;99378.84;;;4.76;87.14
55217;BME280;41086;46.736;15.666;2024-01-27T01:03:21;99376.97;;;4.81;89.44
55217;BME280;41086;46.736;15.666;2024-01-27T01:05:48;99372.44;;;4.86;85.24
55217;BME280;41086;46.736;15.666;2024-01-27T01:08:15;99376.78;;;4.85;86.73
55217;BME280;41086;46.736;15.666;2024-01-27T01:10:42;99391.00;;;5.08;81.20
55217;BME280;41086;46.736;15.666;2024-01-27T01:13:09;99388.53;;;5.30;80.18
55217;BME280;41086;46.736;15.666;2024-01-27T01:15:36;99399.06;;;4.72;88.73
55217;BME280;41086;46.736;15.666;2024-01-27T01:18:03;99401.47;;;4.50;92.42
55217;BME280;41086;46.736;15.666;2024-01-27T01:20:30;99391.59;;;4.60;92.76
55217;BME280;41086;46.736;15.666;2024-01-27T01:22:59;99383.22;;;4.47;90.97
55217;BME280;41086;46.736;15.666;2024-01-27T01:25:25;99403.97;;;4.56;91.73
55217;BME280;41086;46.736;15.666;2024-01-27T01:27:53;99405.63;;;4.59;89.79
55217;BME280;41086;46.736;15.666;2024-01-27T01:30:20;99403.03;;;4.57;88.92
55217;BME280;41086;46.736;15.666;2024-01-27T01:32:46;99419.94;;;4.49;87.84
55217;BME280;41086;46.736;15.666;2024-01-27T01:35:14;99419.47;;;4.34;88.17
55217;BME280;41086;46.736;15.666;2024-01-27T01:37:41;99421.66;;;4.18;88.94
55217;BME280;41086;46.736;15.666;2024-01-27T01:40:08;99435.94;;;4.07;90.56
55217;BME280;41086;46.736;15.666;2024-01-27T01:42:35;99429.97;;;4.02;90.92
55217;BME280;41086;46.736;15.666;2024-01-27T01:45:02;99430.09;;;3.97;91.39
55217;BME280;41086;46.736;15.666;2024-01-27T01:47:29;99419.72;;;3.92;91.66
55217;BME280;41086;46.736;15.666;2024-01-27T01:49:56;99433.38;;;4.05;92.11
55217;BME280;41086;46.736;15.666;2024-01-27T01:52:23;99441.53;;;3.94;90.18
55217;BME280;41086;46.736;15.666;2024-01-27T01:54:50;99437.19;;;3.59;93.66
55217;BME280;41086;46.736;15.666;2024-01-27T01:57:17;99441.88;;;3.46;94.36
55217;BME280;41086;46.736;15.666;2024-01-27T01:59:44;99439.53;;;2.97;97.67
55217;BME280;41086;46.736;15.666;2024-01-27T02:02:12;99427.72;;;3.18;97.26
55217;BME280;41086;46.736;15.666;2024-01-27T02:04:42;99440.78;;;3.19;96.36
55217;BME280;41086;46.736;15.666;2024-01-27T02:07:10;99429.16;;;2.92;99.22
55217;BME280;41086;46.736;15.666;2024-01-27T02:09:36;99439.00;;;3.55;92.97
55217;BME280;41086;46.736;15.666;2024-01-27T02:12:04;99426.66;;;3.95;89.01
55217;BME280;41086;46.736;15.666;2024-01-27T02:14:31;99434.69;;;3.89;88.29
55217;BME280;41086;46.736;15.666;2024-01-27T02:16:58;99443.88;;;4.05;83.65
55217;BME280;41086;46.736;15.666;2024-01-27T02:19:25;99441.69;;;3.88;84.24
55217;BME280;41086;46.736;15.666;2024-01-27T02:21:52;99445.69;;;4.02;78.25
55217;BME280;41086;46.736;15.666;2024-01-27T02:24:19;99437.97;;;3.63;88.23
55217;BME280;41086;46.736;15.666;2024-01-27T02:26:45;99438.16;;;3.89;88.88
55217;BME280;41086;46.736;15.666;2024-01-27T02:29:12;99434.25;;;4.04;83.64
55217;BME280;41086;46.736;15.666;2024-01-27T02:31:39;99423.53;;;4.13;79.44
55217;BME280;41086;46.736;15.666;2024-01-27T02:34:06;99430.44;;;4.49;77.23
55217;BME280;41086;46.736;15.666;2024-01-27T02:36:33;99426.75;;;4.54;75.65
55217;BME280;41086;46.736;15.666;2024-01-27T02:39:00;99437.25;;;4.54;78.09
55217;BME280;41086;46.736;15.666;2024-01-27T02:41:27;99437.66;;;4.40;78.24
55217;BME280;41086;46.736;15.666;2024-01-27T02:43:54;99440.59;;;4.30;78.14
55217;BME280;41086;46.736;15.666;2024-01-27T02:46:20;99440.03;;;4.17;79.25
55217;BME280;41086;46.736;15.666;2024-01-27T02:48:47;99443.72;;;4.10;78.29
55217;BME280;41086;46.736;15.666;2024-01-27T02:51:19;99429.19;;;3.98;78.90
55217;BME280;41086;46.736;15.666;2024-01-27T02:53:46;99445.56;;;4.08;78.92
55217;BME280;41086;46.736;15.666;2024-01-27T02:56:13;99447.63;;;3.61;81.50
55217;BME280;41086;46.736;15.666;2024-01-27T02:58:41;99433.91;;;3.14;88.72
55217;BME280;41086;46.736;15.666;2024-01-27T03:01:07;99444.00;;;3.30;85.98
55217;BME280;41086;46.736;15.666;2024-01-27T03:03:35;99430.31;;;2.80;89.44
55217;BME280;41086;46.736;15.666;2024-01-27T03:06:02;99451.06;;;3.27;86.87
55217;BME280;41086;46.736;15.666;2024-01-27T03:08:29;99451.06;;;3.27;83.57
55217;BME280;41086;46.736;15.666;2024-01-27T03:10:56;99440.56;;;2.91;86.01
55217;BME280;41086;46.736;15.666;2024-01-27T03:13:23;99463.88;;;3.02;84.37
55217;BME280;41086;46.736;15.666;2024-01-27T03:15:50;99455.50;;;2.86;87.64
55217;BME280;41086;46.736;15.666;2024-01-27T03:18:16;99461.09;;;3.09;83.11
55217;BME280;41086;46.736;15.666;2024-01-27T03:20:43;99461.22;;;3.42;81.12
55217;BME280;41086;46.736;15.666;2024-01-27T03:23:10;99454.84;;;3.15;81.78
55217;BME280;41086;46.736;15.666;2024-01-27T03:25:37;99466.06;;;3.92;71.79
55217;BME280;41086;46.736;15.666;2024-01-27T03:28:04;99475.56;;;4.30;71.10
55217;BME280;41086;46.736;15.666;2024-01-27T03:30:30;99472.81;;;4.35;73.23
55217;BME280;41086;46.736;15.666;2024-01-27T03:32:57;99483.66;;;4.54;70.01
55217;BME280;41086;46.736;15.666;2024-01-27T03:35:25;99471.94;;;4.65;70.36
55217;BME280;41086;46.736;15.666;2024-01-27T03:37:52;99486.94;;;4.62;69.18
55217;BME280;41086;46.736;15.666;2024-01-27T03:40:18;99496.06;;;3.46;76.92
55217;BME280;41086;46.736;15.666;2024-01-27T03:42:45;99499.69;;;3.39;78.26
55217;BME280;41086;46.736;15.666;2024-01-27T03:45:12;99505.31;;;3.23;78.99
55217;BME280;41086;46.736;15.666;2024-01-27T03:47:39;99511.78;;;3.07;79.34
55217;BME280;41086;46.736;15.666;2024-01-27T03:50:06;99516.38;;;2.96;79.46
55217;BME280;41086;46.736;15.666;2024-01-27T03:52:34;99512.47;;;2.73;82.27
55217;BME280;41086;46.736;15.666;2024-01-27T03:55:01;99507.28;;;2.25;85.56
55217;BME280;41086;46.736;15.666;2024-01-27T03:57:28;99512.56;;;2.24;91.38
55217;BME280;41086;46.736;15.666;2024-01-27T03:59:55;99509.16;;;2.20;90.64
55217;BME280;41086;46.736;15.666;2024-01-27T04:02:21;99513.22;;;2.36;89.25
55217;BME280;41086;46.736;15.666;2024-01-27T04:04:48;99507.41;;;2.20;89.77
55217;BME280;41086;46.736;15.666;2024-01-27T04:07:15;99491.13;;;2.51;85.73
55217;BME280;41086;46.736;15.666;2024-01-27T04:09:42;99505.19;;;2.44;86.34
55217;BME280;41086;46.736;15.666;2024-01-27T04:12:09;99455.56;;;2.83;78.86
55217;BME280;41086;46.736;15.666;2024-01-27T04:14:36;99498.75;;;3.43;74.18
55217;BME280;41086;46.736;15.666;2024-01-27T04:17:03;99494.22;;;3.49;74.96
55217;BME280;41086;46.736;15.666;2024-01-27T04:19:30;99487.19;;;3.51;76.35
55217;BME280;41086;46.736;15.666;2024-01-27T04:21:57;99509.50;;;3.30;76.83
55217;BME280;41086;46.736;15.666;2024-01-27T04:24:23;99514.09;;;3.21;77.83
55217;BME280;41086;46.736;15.666;2024-01-27T04:26:50;99518.44;;;2.36;83.47
55217;BME280;41086;46.736;15.666;2024-01-27T04:29:17;99526.63;;;2.18;86.57
55217;BME280;41086;46.736;15.666;2024-01-27T04:31:44;99524.56;;;1.84;90.38
55217;BME280;41086;46.736;15.666;2024-01-27T04:34:11;99522.44;;;2.08;88.82
55217;BME280;41086;46.736;15.666;2024-01-27T04:36:38;99519.69;;;1.66;92.62
55217;BME280;41086;46.736;15.666;2024-01-27T04:39:05;99511.84;;;1.66;92.38
55217;BME280;41086;46.736;15.666;2024-01-27T04:41:32;99521.94;;;1.31;95.58
55217;BME280;41086;46.736;15.666;2024-01-27T04:43:58;99521.59;;;1.53;94.67
55217;BME280;41086;46.736;15.666;2024-01-27T04:46:25;99515.25;;;1.12;97.98
55217;BME280;41086;46.736;15.666;2024-01-27T04:48:52;99517.66;;;1.26;96.52
55217;BME280;41086;46.736;15.666;2024-01-27T04:51:19;99523.16;;;1.06;98.05
55217;BME280;41086;46.736;15.666;2024-01-27T04:53:46;99529.81;;;1.27;96.76
55217;BME280;41086;46.736;15.666;2024-01-27T04:56:13;99530.41;;;1.47;94.15
55217;BME280;41086;46.736;15.666;2024-01-27T04:58:40;99531.47;;;1.34;95.55
55217;BME280;41086;46.736;15.666;2024-01-27T05:01:07;99549.44;;;1.54;93.91
55217;BME280;41086;46.736;15.666;2024-01-27T05:03:35;99561.16;;;1.84;91.58
55217;BME280;41086;46.736;15.666;2024-01-27T05:06:03;99559.47;;;1.82;88.76
55217;BME280;41086;46.736;15.666;2024-01-27T05:08:30;99564.97;;;1.65;91.22
55217;BME280;41086;46.736;15.666;2024-01-27T05:10:56;99571.84;;;1.72;89.84
55217;BME280;41086;46.736;15.666;2024-01-27T05:13:24;99570.94;;;1.73;90.76
55217;BME280;41086;46.736;15.666;2024-01-27T05:15:51;99581.22;;;1.85;88.90
55217;BME280;41086;46.736;15.666;2024-01-27T05:18:18;99581.16;;;1.88;88.36
55217;BME280;41086;46.736;15.666;2024-01-27T05:20:45;99586.63;;;1.73;89.76
55217;BME280;41086;46.736;15.666;2024-01-27T05:23:12;99589.13;;;1.79;87.77
55217;BME280;41086;46.736;15.666;2024-01-27T05:25:39;99587.22;;;1.30;91.65
55217;BME280;41086;46.736;15.666;2024-01-27T05:28:06;99583.84;;;1.22;91.96
55217;BME280;41086;46.736;15.666;2024-01-27T05:30:33;99585.59;;;1.23;91.56
55217;BME280;41086;46.736;15.666;2024-01-27T05:33:00;99585.84;;;1.03;94.14
55217;BME280;41086;46.736;15.666;2024-01-27T05:35:27;99590.41;;;0.85;96.02
55217;BME280;41086;46.736;15.666;2024-01-27T05:37:53;99598.91;;;1.01;96.36
55217;BME280;41086;46.736;15.666;2024-01-27T05:40:20;99599.22;;;1.45;96.15
55217;BME280;41086;46.736;15.666;2024-01-27T05:42:47;99606.25;;;1.41;93.72
55217;BME280;41086;46.736;15.666;2024-01-27T05:45:15;99617.47;;;1.46;92.62
55217;BME280;41086;46.736;15.666;2024-01-27T05:47:42;99634.75;;;1.57;90.99
55217;BME280;41086;46.736;15.666;2024-01-27T05:50:10;99640.09;;;1.50;91.76
55217;BME280;41086;46.736;15.666;2024-01-27T05:52:36;99637.53;;;0.72;95.83
55217;BME280;41086;46.736;15.666;2024-01-27T05:55:03;99640.00;;;0.87;99.07
55217;BME280;41086;46.736;15.666;2024-01-27T05:57:33;99646.50;;;0.43;99.53
55217;BME280;41086;46.736;15.666;2024-01-27T06:00:00;99648.88;;;0.69;99.13
55217;BME280;41086;46.736;15.666;2024-01-27T06:02:30;99647.03;;;0.76;99.66
55217;BME280;41086;46.736;15.666;2024-01-27T06:04:57;99656.34;;;1.00;95.82
55217;BME280;41086;46.736;15.666;2024-01-27T06:07:23;99668.63;;;0.93;95.79
55217;BME280;41086;46.736;15.666;2024-01-27T06:09:50;99653.88;;;0.89;94.72
55217;BME280;41086;46.736;15.666;2024-01-27T06:12:17;99666.47;;;1.29;95.22
55217;BME280;41086;46.736;15.666;2024-01-27T06:14:44;99666.47;;;1.29;95.28
55217;BME280;41086;46.736;15.666;2024-01-27T06:17:11;99666.59;;;1.20;96.97
55217;BME280;41086;46.736;15.666;2024-01-27T06:19:38;99676.16;;;1.21;96.67
55217;BME280;41086;46.736;15.666;2024-01-27T06:22:05;99682.53;;;0.94;98.21
55217;BME280;41086;46.736;15.666;2024-01-27T06:24:32;99686.75;;;1.05;97.47
55217;BME280;41086;46.736;15.666;2024-01-27T06:26:59;99686.88;;;0.95;98.77
55217;BME280;41086;46.736;15.666;2024-01-27T06:29:26;99648.66;;;0.89;97.35
55217;BME280;41086;46.736;15.666;2024-01-27T06:31:53;99689.44;;;1.01;96.37
55217;BME280;41086;46.736;15.666;2024-01-27T06:34:20;99682.22;;;1.23;96.10
55217;BME280;41086;46.736;15.666;2024-01-27T06:36:47;99672.78;;;1.09;95.42
55217;BME280;41086;46.736;15.666;2024-01-27T06:39:14;99687.50;;;1.18;97.37
55217;BME280;41086;46.736;15.666;2024-01-27T06:41:41;99680.34;;;1.34;95.96
55217;BME280;41086;46.736;15.666;2024-01-27T06:44:08;99693.66;;;1.11;95.19
55217;BME280;41086;46.736;15.666;2024-01-27T06:46:34;99681.59;;;0.99;95.76
55217;BME280;41086;46.736;15.666;2024-01-27T06:49:01;99687.69;;;1.00;96.21
55217;BME280;41086;46.736;15.666;2024-01-27T06:51:28;99694.72;;;0.92;98.57
55217;BME280;41086;46.736;15.666;2024-01-27T06:53:55;99701.44;;;1.16;96.69
55217;BME280;41086;46.736;15.666;2024-01-27T06:56:22;99714.53;;;1.11;95.47
55217;BME280;41086;46.736;15.666;2024-01-27T06:58:49;99711.72;;;1.31;95.77
55217;BME280;41086;46.736;15.666;2024-01-27T07:01:15;99721.03;;;1.55;93.02
55217;BME280;41086;46.736;15.666;2024-01-27T07:03:42;99722.06;;;1.40;94.77
55217;BME280;41086;46.736;15.666;2024-01-27T07:06:11;99720.69;;;1.81;93.43
55217;BME280;41086;46.736;15.666;2024-01-27T07:08:38;99734.41;;;1.97;90.19
55217;BME280;41086;46.736;15.666;2024-01-27T07:11:05;99735.88;;;2.16;88.54
55217;BME280;41086;46.736;15.666;2024-01-27T07:13:33;99731.84;;;1.94;87.44
55217;BME280;41086;46.736;15.666;2024-01-27T07:16:00;99732.34;;;1.55;91.69
55217;BME280;41086;46.736;15.666;2024-01-27T07:18:27;99730.84;;;2.03;88.80
55217;BME280;41086;46.736;15.666;2024-01-27T07:20:54;99734.47;;;1.92;88.11
55217;BME280;41086;46.736;15.666;2024-01-27T07:23:21;99736.13;;;1.99;88.20
55217;BME280;41086;46.736;15.666;2024-01-27T07:25:48;99740.09;;;1.63;90.38
55217;BME280;41086;46.736;15.666;2024-01-27T07:28:15;99732.53;;;2.07;90.57
55217;BME280;41086;46.736;15.666;2024-01-27T07:30:42;99738.59;;;2.10;89.42
55217;BME280;41086;46.736;15.666;2024-01-27T07:33:09;99740.94;;;2.29;86.75
55217;BME280;41086;46.736;15.666;2024-01-27T07:35:36;99732.09;;;2.36;87.96
55217;BME280;41086;46.736;15.666;2024-01-27T07:38:03;99734.94;;;2.76;83.39
55217;BME280;41086;46.736;15.666;2024-01-27T07:40:30;99740.00;;;2.33;89.35
55217;BME280;41086;46.736;15.666;2024-01-27T07:42:57;99752.19;;;2.34;86.71
55217;BME280;41086;46.736;15.666;2024-01-27T07:45:24;99754.00;;;2.84;81.92
55217;BME280;41086;46.736;15.666;2024-01-27T07:47:51;99760.88;;;2.92;84.25
55217;BME280;41086;46.736;15.666;2024-01-27T07:50:17;99762.28;;;3.11;80.24
55217;BME280;41086;46.736;15.666;2024-01-27T07:52:44;99752.09;;;2.93;85.41
55217;BME280;41086;46.736;15.666;2024-01-27T07:55:11;99760.69;;;3.02;82.87
55217;BME280;41086;46.736;15.666;2024-01-27T07:57:38;99773.59;;;3.13;79.07
55217;BME280;41086;46.736;15.666;2024-01-27T08:00:05;99769.09;;;3.20;80.58
55217;BME280;41086;46.736;15.666;2024-01-27T08:02:33;99762.69;;;3.36;79.73
55217;BME280;41086;46.736;15.666;2024-01-27T08:04:59;99783.13;;;4.07;76.90
55217;BME280;41086;46.736;15.666;2024-01-27T08:07:26;99792.22;;;4.69;74.61
55217;BME280;41086;46.736;15.666;2024-01-27T08:09:53;99794.09;;;4.99;73.78
55217;BME280;41086;46.736;15.666;2024-01-27T08:12:20;99783.41;;;5.40;76.57
55217;BME280;41086;46.736;15.666;2024-01-27T08:14:47;99784.47;;;5.98;70.12
55217;BME280;41086;46.736;15.666;2024-01-27T08:17:14;99789.53;;;6.34;63.39
55217;BME280;41086;46.736;15.666;2024-01-27T08:19:41;99782.00;;;6.21;58.94
55217;BME280;41086;46.736;15.666;2024-01-27T08:22:08;99791.56;;;6.24;61.09
55217;BME280;41086;46.736;15.666;2024-01-27T08:24:36;99793.97;;;6.32;61.39
55217;BME280;41086;46.736;15.666;2024-01-27T08:27:03;99793.19;;;6.30;61.61
55217;BME280;41086;46.736;15.666;2024-01-27T08:29:31;99793.41;;;6.50;61.82
55217;BME280;41086;46.736;15.666;2024-01-27T08:31:57;99806.56;;;6.78;62.70
55217;BME280;41086;46.736;15.666;2024-01-27T08:34:24;99819.09;;;6.72;67.80
55217;BME280;41086;46.736;15.666;2024-01-27T08:36:51;99826.06;;;7.27;65.57
55217;BME280;41086;46.736;15.666;2024-01-27T08:39:18;99817.16;;;8.05;65.89
55217;BME280;41086;46.736;15.666;2024-01-27T08:41:45;99816.88;;;8.13;64.60
55217;BME280;41086;46.736;15.666;2024-01-27T08:44:12;99811.72;;;8.79;58.61
55217;BME280;41086;46.736;15.666;2024-01-27T08:46:39;99815.84;;;8.64;53.79
55217;BME280;41086;46.736;15.666;2024-01-27T08:49:06;99823.13;;;8.10;52.41
55217;BME280;41086;46.736;15.666;2024-01-27T08:51:33;99817.22;;;7.55;58.42
55217;BME280;41086;46.736;15.666;2024-01-27T08:53:59;99823.22;;;7.07;55.32
55217;BME280;41086;46.736;15.666;2024-01-27T08:56:27;99814.09;;;7.69;55.42
55217;BME280;41086;46.736;15.666;2024-01-27T08:58:55;99833.88;;;8.29;55.77
55217;BME280;41086;46.736;15.666;2024-01-27T09:01:22;99839.66;;;9.06;53.62
55217;BME280;41086;46.736;15.666;2024-01-27T09:03:49;99838.16;;;9.84;53.30
55217;BME280;41086;46.736;15.666;2024-01-27T09:06:16;99847.72;;;10.65;53.36
55217;BME280;41086;46.736;15.666;2024-01-27T09:08:43;99834.22;;;11.25;50.43
55217;BME280;41086;46.736;15.666;2024-01-27T09:11:12;99837.91;;;11.92;49.44
55217;BME280;41086;46.736;15.666;2024-01-27T09:13:39;99856.78;;;12.37;47.39
55217;BME280;41086;46.736;15.666;2024-01-27T09:16:07;99856.44;;;12.43;48.02
55217;BME280;41086;46.736;15.666;2024-01-27T09:18:34;99861.13;;;11.89;43.19
55217;BME280;41086;46.736;15.666;2024-01-27T09:21:01;99867.66;;;11.82;45.32
55217;BME280;41086;46.736;15.666;2024-01-27T09:23:27;99866.78;;;12.16;44.30
55217;BME280;41086;46.736;15.666;2024-01-27T09:25:54;99868.22;;;11.88;50.23
55217;BME280;41086;46.736;15.666;2024-01-27T09:28:21;99858.72;;;12.17;46.93
55217;BME280;41086;46.736;15.666;2024-01-27T09:30:48;99861.63;;;12.78;48.19
55217;BME280;41086;46.736;15.666;2024-01-27T09:33:15;99869.19;;;13.17;44.43
55217;BME280;41086;46.736;15.666;2024-01-27T09:35:44;99870.44;;;13.42;44.74
55217;BME280;41086;46.736;15.666;2024-01-27T09:38:11;99867.22;;;13.81;44.03
55217;BME280;41086;46.736;15.666;2024-01-27T09:40:39;99870.91;;;14.09;43.10
55217;BME280;41086;46.736;15.666;2024-01-27T09:43:06;99879.50;;;14.28;40.54
55217;BME280;41086;46.736;15.666;2024-01-27T09:45:37;99873.19;;;14.29;42.22
55217;BME280;41086;46.736;15.666;2024-01-27T09:48:05;99885.38;;;14.48;41.32
55217;BME280;41086;46.736;15.666;2024-01-27T09:50:34;99870.16;;;14.50;41.13
55217;BME280;41086;46.736;15.666;2024-01-27T09:53:01;99872.53;;;14.54;41.05
55217;BME280;41086;46.736;15.666;2024-01-27T09:55:28;99877.22;;;14.65;40.62
55217;BME280;41086;46.736;15.666;2024-01-27T09:57:55;99874.16;;;14.43;37.86
55217;BME280;41086;46.736;15.666;2024-01-27T10:00:22;99881.50;;;14.53;39.38
55217;BME280;41086;46.736;15.666;2024-01-27T10:02:50;99885.75;;;14.99;40.19
55217;BME280;41086;46.736;15.666;2024-01-27T10:05:18;99878.66;;;14.98;38.08
55217;BME280;41086;46.736;15.666;2024-01-27T10:07:45;99877.69;;;15.40;38.48
55217;BME280;41086;46.736;15.666;2024-01-27T10:10:12;99887.44;;;15.81;38.55
55217;BME280;41086;46.736;15.666;2024-01-27T10:12:40;99883.00;;;16.07;36.43
55217;BME280;41086;46.736;15.666;2024-01-27T10:15:21;99874.09;;;16.32;35.98
55217;BME280;41086;46.736;15.666;2024-01-27T10:17:49;99888.31;;;16.46;34.24
55217;BME280;41086;46.736;15.666;2024-01-27T10:20:16;99885.66;;;16.46;34.67
55217;BME280;41086;46.736;15.666;2024-01-27T10:22:45;99884.91;;;16.44;33.50
55217;BME280;41086;46.736;15.666;2024-01-27T10:25:12;99874.94;;;16.33;34.88
55217;BME280;41086;46.736;15.666;2024-01-27T10:27:39;99866.44;;;15.35;34.86
55217;BME280;41086;46.736;15.666;2024-01-27T10:30:07;99875.59;;;15.85;34.92
55217;BME280;41086;46.736;15.666;2024-01-27T10:32:41;99877.75;;;16.18;34.00
55217;BME280;41086;46.736;15.666;2024-01-27T10:35:08;99869.38;;;16.49;34.59
55217;BME280;41086;46.736;15.666;2024-01-27T10:37:38;99870.19;;;16.88;34.12
55217;BME280;41086;46.736;15.666;2024-01-27T10:40:07;99878.00;;;17.15;32.59
55217;BME280;41086;46.736;15.666;2024-01-27T10:42:35;99876.66;;;17.33;30.78
55217;BME280;41086;46.736;15.666;2024-01-27T10:45:03;99865.06;;;17.57;31.08
55217;BME280;41086;46.736;15.666;2024-01-27T10:47:32;99865.06;;;17.57;30.68
55217;BME280;41086;46.736;15.666;2024-01-27T10:50:00;99858.06;;;16.95;27.72
55217;BME280;41086;46.736;15.666;2024-01-27T10:52:30;99855.19;;;16.85;31.11
55217;BME280;41086;46.736;15.666;2024-01-27T10:55:03;99858.78;;;16.47;30.43
55217;BME280;41086;46.736;15.666;2024-01-27T10:57:31;99857.66;;;16.75;32.88
55217;BME280;41086;46.736;15.666;2024-01-27T11:00:00;99866.13;;;17.19;31.77
55217;BME280;41086;46.736;15.666;2024-01-27T11:02:33;99864.97;;;17.69;31.19
55217;BME280;41086;46.736;15.666;2024-01-27T11:05:02;99854.38;;;18.03;30.25
55217;BME280;41086;46.736;15.666;2024-01-27T11:07:33;99856.59;;;18.09;28.12
55217;BME280;41086;46.736;15.666;2024-01-27T11:10:01;99855.72;;;18.09;30.38
55217;BME280;41086;46.736;15.666;2024-01-27T11:12:29;99866.50;;;17.01;27.04
55217;BME280;41086;46.736;15.666;2024-01-27T11:14:56;99849.19;;;16.94;31.40
55217;BME280;41086;46.736;15.666;2024-01-27T11:17:25;99861.34;;;17.35;26.06
55217;BME280;41086;46.736;15.666;2024-01-27T11:19:52;99866.78;;;17.58;27.89
55217;BME280;41086;46.736;15.666;2024-01-27T11:22:29;99861.59;;;17.43;27.38
55217;BME280;41086;46.736;15.666;2024-01-27T11:27:41;99858.66;;;17.11;29.38
55217;BME280;41086;46.736;15.666;2024-01-27T11:30:27;99858.22;;;16.80;26.11
55217;BME280;41086;46.736;15.666;2024-01-27T11:32:56;99850.66;;;16.49;29.25
55217;BME280;41086;46.736;15.666;2024-01-27T11:35:24;99840.63;;;16.14;27.53
55217;BME280;41086;46.736;15.666;2024-01-27T11:37:51;99845.19;;;14.51;26.28
55217;BME280;41086;46.736;15.666;2024-01-27T11:40:18;99829.88;;;14.69;27.24
55217;BME280;41086;46.736;15.666;2024-01-27T11:43:02;99845.78;;;15.64;26.11
55217;BME280;41086;46.736;15.666;2024-01-27T11:45:33;99857.28;;;15.92;30.57
55217;BME280;41086;46.736;15.666;2024-01-27T11:48:00;99854.78;;;15.36;28.80
55217;BME280;41086;46.736;15.666;2024-01-27T11:50:27;99857.69;;;14.65;28.63
55217;BME280;41086;46.736;15.666;2024-01-27T11:52:56;99850.81;;;14.75;26.74
55217;BME280;41086;46.736;15.666;2024-01-27T11:55:22;99854.53;;;14.72;25.90
55217;BME280;41086;46.736;15.666;2024-01-27T11:57:49;99844.97;;;13.82;31.33
55217;BME280;41086;46.736;15.666;2024-01-27T12:00:16;99847.88;;;13.17;28.75
55217;BME280;41086;46.736;15.666;2024-01-27T12:02:43;99846.44;;;12.64;27.47
55217;BME280;41086;46.736;15.666;2024-01-27T12:05:10;99846.84;;;13.36;26.47
55217;BME280;41086;46.736;15.666;2024-01-27T12:07:39;99837.00;;;12.58;27.43
55217;BME280;41086;46.736;15.666;2024-01-27T12:10:07;99833.38;;;12.28;29.98
55217;BME280;41086;46.736;15.666;2024-01-27T12:12:34;99838.97;;;12.55;28.42
55217;BME280;41086;46.736;15.666;2024-01-27T12:15:01;99839.72;;;11.92;29.80
55217;BME280;41086;46.736;15.666;2024-01-27T12:17:30;99803.44;;;11.56;29.10
55217;BME280;41086;46.736;15.666;2024-01-27T12:19:57;99825.47;;;11.75;28.24
55217;BME280;41086;46.736;15.666;2024-01-27T12:22:28;99822.19;;;12.21;25.71
55217;BME280;41086;46.736;15.666;2024-01-27T12:25:07;99825.97;;;12.17;28.99
55217;BME280;41086;46.736;15.666;2024-01-27T12:27:34;99825.41;;;12.28;33.45
55217;BME280;41086;46.736;15.666;2024-01-27T12:30:02;99830.59;;;12.13;27.18
55217;BME280;41086;46.736;15.666;2024-01-27T12:32:29;99823.69;;;11.41;34.02
55217;BME280;41086;46.736;15.666;2024-01-27T12:34:58;99811.56;;;11.88;26.78
55217;BME280;41086;46.736;15.666;2024-01-27T12:37:27;99817.88;;;12.03;25.64
55217;BME280;41086;46.736;15.666;2024-01-27T12:39:54;99810.56;;;11.56;28.04
55217;BME280;41086;46.736;15.666;2024-01-27T12:42:21;99813.06;;;11.41;28.14
55217;BME280;41086;46.736;15.666;2024-01-27T12:44:48;99821.59;;;12.16;26.44
55217;BME280;41086;46.736;15.666;2024-01-27T12:47:15;99815.88;;;11.90;26.04
55217;BME280;41086;46.736;15.666;2024-01-27T12:49:42;99825.06;;;11.83;26.38
55217;BME280;41086;46.736;15.666;2024-01-27T12:52:09;99815.88;;;11.56;31.12
55217;BME280;41086;46.736;15.666;2024-01-27T12:54:36;99822.31;;;12.02;29.13
55217;BME280;41086;46.736;15.666;2024-01-27T12:57:03;99823.91;;;11.71;30.06
55217;BME280;41086;46.736;15.666;2024-01-27T12:59:30;99831.16;;;11.85;25.69
55217;BME280;41086;46.736;15.666;2024-01-27T13:01:58;99831.66;;;11.76;28.30